Time;durP1;ratioP1;P1;durP2;ratioP2;P2;SDS_P1;SDS_P2;PMS_P1;PMS_P2;Temp;Humidity;BMP_temperature;BMP_pressure;BME280_temperature;BME280_humidity;BME280_pressure;Samples;Min_cycle;Max_cycle;Signal;HPM_P1;HPM_P2
2023/03/10 00:01:50;;;;;;;8.70;4.22;;;1.40;99.90;;;;;;5002632;28;20415;-35
2023/03/10 00:04:16;;;;;;;9.30;4.20;;;1.40;99.90;;;;;;5004094;28;20522;-36
2023/03/10 00:06:42;;;;;;;9.23;4.60;;;1.40;99.90;;;;;;5010469;28;20134;-36
2023/03/10 00:09:11;;;;;;;9.60;4.22;;;1.40;99.90;;;;;;5005129;28;20049;-36
2023/03/10 00:11:36;;;;;;;10.40;4.53;;;1.40;99.90;;;;;;5002125;28;20492;-36
2023/03/10 00:14:02;;;;;;;9.32;4.07;;;1.40;99.90;;;;;;5004014;28;20092;-36
2023/03/10 00:16:29;;;;;;;10.10;5.03;;;1.40;99.90;;;;;;5018476;28;20057;-36
2023/03/10 00:18:55;;;;;;;10.15;4.28;;;1.40;99.90;;;;;;5009104;28;20060;-36
2023/03/10 00:21:27;;;;;;;8.65;4.50;;;1.40;99.90;;;;;;5008288;28;20139;-45
2023/03/10 00:23:53;;;;;;;9.95;4.85;;;1.40;99.90;;;;;;5003884;28;20058;-36
2023/03/10 00:26:20;;;;;;;9.57;4.22;;;1.40;99.90;;;;;;5002805;28;20053;-36
2023/03/10 00:28:46;;;;;;;10.93;4.95;;;1.40;99.90;;;;;;5004967;28;20049;-36
2023/03/10 00:31:20;;;;;;;11.15;4.90;;;1.40;99.90;;;;;;5005399;28;20046;-36
2023/03/10 00:33:46;;;;;;;9.45;4.28;;;1.40;99.90;;;;;;5001732;28;20057;-36
2023/03/10 00:36:19;;;;;;;9.45;4.53;;;1.40;99.90;;;;;;5005040;28;20074;-36
2023/03/10 00:38:47;;;;;;;;;;;1.40;99.90;;;;;;5009894;28;20491;-36
2023/03/10 00:41:19;;;;;;;9.15;4.20;;;1.40;99.90;;;;;;5008866;28;19932;-39
2023/03/10 00:43:45;;;;;;;10.40;4.88;;;1.40;99.90;;;;;;4999706;28;22712;-37
2023/03/10 00:46:12;;;;;;;9.35;4.63;;;1.40;99.90;;;;;;4999403;28;20050;-36
2023/03/10 00:48:38;;;;;;;11.38;5.07;;;1.40;99.90;;;;;;4997101;28;20057;-36
2023/03/10 00:51:05;;;;;;;11.05;4.70;;;1.40;99.90;;;;;;5007045;28;20057;-36
2023/03/10 00:53:32;;;;;;;10.88;4.78;;;1.40;99.90;;;;;;5005537;28;20068;-36
2023/03/10 00:55:58;;;;;;;10.43;4.72;;;1.40;99.90;;;;;;5010407;28;20502;-36
2023/03/10 00:58:24;;;;;;;8.50;4.38;;;1.40;99.90;;;;;;5018724;28;20669;-37
2023/03/10 01:00:49;;;;;;;10.68;4.75;;;1.40;99.90;;;;;;5008235;28;20042;-36
2023/03/10 01:03:15;;;;;;;10.40;4.82;;;1.40;99.90;;;;;;5001610;28;20060;-36
2023/03/10 01:05:41;;;;;;;11.20;5.00;;;1.40;99.90;;;;;;4999924;28;20050;-37
2023/03/10 01:08:07;;;;;;;9.32;4.60;;;1.40;99.90;;;;;;5008349;28;20048;-36
2023/03/10 01:10:33;;;;;;;9.90;4.60;;;1.40;99.90;;;;;;5006904;28;20404;-36
2023/03/10 01:12:58;;;;;;;9.20;4.28;;;1.40;99.90;;;;;;5008414;28;20058;-36
2023/03/10 01:15:24;;;;;;;9.52;4.30;;;1.40;99.90;;;;;;5005813;28;20403;-36
2023/03/10 01:17:50;;;;;;;10.95;4.53;;;1.30;99.90;;;;;;5005509;28;20479;-36
2023/03/10 01:20:17;;;;;;;8.32;3.90;;;1.30;99.90;;;;;;5011532;28;20048;-36
2023/03/10 01:22:43;;;;;;;9.68;4.50;;;1.40;99.90;;;;;;5004484;28;20046;-36
2023/03/10 01:25:15;;;;;;;7.90;3.78;;;1.40;99.90;;;;;;5008987;28;20049;-36
2023/03/10 01:27:42;;;;;;;8.83;3.87;;;1.30;99.90;;;;;;5018805;28;20128;-36
2023/03/10 01:30:10;;;;;;;9.18;4.45;;;1.40;99.90;;;;;;5005857;28;20281;-36
2023/03/10 01:32:37;;;;;;;8.70;3.72;;;1.40;99.90;;;;;;5008360;28;20547;-36
2023/03/10 01:35:06;;;;;;;7.65;3.45;;;1.40;99.90;;;;;;5003435;28;20517;-36
2023/03/10 01:37:32;;;;;;;8.90;3.83;;;1.40;99.90;;;;;;5006338;28;20065;-36
2023/03/10 01:39:59;;;;;;;6.72;3.55;;;1.40;99.90;;;;;;5005905;28;20053;-36
2023/03/10 01:42:25;;;;;;;8.27;3.67;;;1.40;99.90;;;;;;5006111;28;20068;-36
2023/03/10 01:45:07;;;;;;;7.50;3.47;;;1.40;99.90;;;;;;5005880;28;20499;-37
2023/03/10 01:47:33;;;;;;;;;;;1.40;99.90;;;;;;5004295;28;20153;-37
2023/03/10 01:49:59;;;;;;;7.10;3.38;;;1.40;99.90;;;;;;5006343;28;20365;-38
2023/03/10 01:52:30;;;;;;;7.53;3.28;;;1.40;99.90;;;;;;5005346;28;20049;-36
2023/03/10 01:55:12;;;;;;;7.35;3.22;;;1.40;99.90;;;;;;5000651;28;20045;-36
2023/03/10 01:57:49;;;;;;;7.70;3.47;;;1.40;99.90;;;;;;5000351;28;20123;-37
2023/03/10 02:00:16;;;;;;;6.20;2.53;;;1.40;99.90;;;;;;5005466;28;20129;-37
2023/03/10 02:02:55;;;;;;;7.53;3.70;;;1.40;99.90;;;;;;5004041;28;20042;-38
2023/03/10 02:05:21;;;;;;;8.25;3.45;;;1.40;99.90;;;;;;5004685;28;20080;-37
2023/03/10 02:07:47;;;;;;;9.05;3.53;;;1.40;99.90;;;;;;5019171;28;20057;-37
2023/03/10 02:10:14;;;;;;;7.72;3.50;;;1.40;99.90;;;;;;5004139;28;20487;-37
2023/03/10 02:12:42;;;;;;;7.75;3.65;;;1.40;99.90;;;;;;5007128;28;20058;-37
2023/03/10 02:15:09;;;;;;;7.93;3.70;;;1.40;99.90;;;;;;5000684;28;20140;-37
2023/03/10 02:17:35;;;;;;;7.82;3.83;;;1.40;99.90;;;;;;5009707;28;20127;-37
2023/03/10 02:20:19;;;;;;;7.82;3.47;;;1.40;99.90;;;;;;5006177;28;20077;-36
2023/03/10 02:22:46;;;;;;;6.75;3.15;;;1.40;99.90;;;;;;5003920;28;20073;-36
2023/03/10 02:25:24;;;;;;;8.45;3.67;;;1.40;99.90;;;;;;5002376;28;20045;-36
2023/03/10 02:27:50;;;;;;;9.85;4.45;;;1.40;99.90;;;;;;5005232;28;20050;-37
2023/03/10 02:30:21;;;;;;;7.25;3.88;;;1.40;99.90;;;;;;5004444;28;20415;-37
2023/03/10 02:32:52;;;;;;;9.00;4.22;;;1.30;99.90;;;;;;5007006;28;20096;-37
2023/03/10 02:35:18;;;;;;;8.50;3.90;;;1.40;99.90;;;;;;5006931;28;20050;-36
2023/03/10 02:37:44;;;;;;;8.65;4.05;;;1.30;99.90;;;;;;5002720;28;20050;-38
2023/03/10 02:40:32;;;;;;;8.52;4.00;;;1.30;99.90;;;;;;5003738;28;20088;-36
2023/03/10 02:43:24;;;;;;;8.52;4.32;;;1.40;99.90;;;;;;4996746;28;20065;-37
2023/03/10 02:45:50;;;;;;;9.38;4.45;;;1.30;99.90;;;;;;5001663;28;20124;-37
2023/03/10 02:48:24;;;;;;;8.25;3.88;;;1.30;99.90;;;;;;5024387;28;20460;-36
2023/03/10 02:50:51;;;;;;;10.35;4.68;;;1.30;99.90;;;;;;5009279;28;20081;-36
2023/03/10 02:53:20;;;;;;;8.80;4.05;;;1.30;99.90;;;;;;5006829;28;20499;-37
2023/03/10 02:55:46;;;;;;;9.18;4.00;;;1.30;99.90;;;;;;5008281;28;20054;-37
2023/03/10 02:58:12;;;;;;;8.43;4.22;;;1.30;99.90;;;;;;5007961;28;20129;-37
2023/03/10 03:00:39;;;;;;;10.02;4.68;;;1.30;99.90;;;;;;5004438;28;20104;-37
2023/03/10 03:03:06;;;;;;;8.68;4.15;;;1.30;99.90;;;;;;5009657;28;20111;-46
2023/03/10 03:05:32;;;;;;;8.23;4.18;;;1.30;99.90;;;;;;5009588;28;20053;-37
2023/03/10 03:07:58;;;;;;;9.18;4.15;;;1.30;99.90;;;;;;5011704;28;20125;-37
2023/03/10 03:10:24;;;;;;;7.43;3.35;;;1.30;99.90;;;;;;5004618;28;20052;-37
2023/03/10 03:12:50;;;;;;;8.27;3.80;;;1.30;99.90;;;;;;5008015;28;20059;-38
2023/03/10 03:15:17;;;;;;;9.23;4.25;;;1.30;99.90;;;;;;5006070;28;20053;-37
2023/03/10 03:17:42;;;;;;;9.07;4.22;;;1.30;99.90;;;;;;5007299;28;20072;-37
2023/03/10 03:20:13;;;;;;;7.72;3.90;;;1.30;99.90;;;;;;5008402;28;20420;-37
2023/03/10 03:22:44;;;;;;;9.02;4.00;;;1.30;99.90;;;;;;5005148;28;20133;-46
2023/03/10 03:25:12;;;;;;;7.32;3.78;;;1.30;99.90;;;;;;5007733;28;20084;-38
2023/03/10 03:27:38;;;;;;;6.25;2.95;;;1.30;99.90;;;;;;5007407;28;20510;-37
2023/03/10 03:30:06;;;;;;;8.00;3.35;;;1.30;99.90;;;;;;5008577;28;20052;-37
2023/03/10 03:32:34;;;;;;;6.68;3.30;;;1.30;99.90;;;;;;5004146;28;21280;-37
2023/03/10 03:35:00;;;;;;;8.40;3.95;;;1.30;99.90;;;;;;5007226;28;20049;-37
2023/03/10 03:37:25;;;;;;;6.93;3.35;;;1.30;99.90;;;;;;5000218;28;20054;-37
2023/03/10 03:39:51;;;;;;;8.15;4.10;;;1.30;99.90;;;;;;5024026;28;20066;-37
2023/03/10 03:42:17;;;;;;;8.35;3.90;;;1.30;99.90;;;;;;5006969;28;20069;-38
2023/03/10 03:44:43;;;;;;;7.22;3.67;;;1.30;99.90;;;;;;5006177;28;20165;-40
2023/03/10 03:47:09;;;;;;;6.38;3.22;;;1.30;99.90;;;;;;5007031;28;20050;-38
2023/03/10 03:49:36;;;;;;;7.50;3.33;;;1.30;99.90;;;;;;5001911;28;20125;-39
2023/03/10 03:52:03;;;;;;;7.28;3.22;;;1.30;99.90;;;;;;5001667;28;20058;-38
2023/03/10 03:54:28;;;;;;;9.07;4.55;;;1.30;99.90;;;;;;4989110;28;20058;-36
2023/03/10 03:56:54;;;;;;;8.27;3.83;;;1.30;99.90;;;;;;5007289;28;20053;-37
2023/03/10 03:59:20;;;;;;;8.93;3.75;;;1.20;99.90;;;;;;5005307;28;20081;-36
2023/03/10 04:01:46;;;;;;;8.60;3.75;;;1.30;99.90;;;;;;5020664;28;20466;-36
2023/03/10 04:04:11;;;;;;;7.97;3.72;;;1.20;99.90;;;;;;5005988;28;20057;-37
2023/03/10 04:06:37;;;;;;;8.00;3.65;;;1.30;99.90;;;;;;5007152;28;20045;-37
2023/03/10 04:09:03;;;;;;;8.43;3.90;;;1.30;99.90;;;;;;5003621;28;20072;-37
2023/03/10 04:11:29;;;;;;;8.10;3.63;;;1.30;99.90;;;;;;5001881;28;20424;-37
2023/03/10 04:13:54;;;;;;;10.07;3.80;;;1.30;99.90;;;;;;5004448;28;20133;-37
2023/03/10 04:16:20;;;;;;;8.48;3.65;;;1.30;99.90;;;;;;5006011;28;20045;-37
2023/03/10 04:18:46;;;;;;;9.70;4.32;;;1.30;99.90;;;;;;5014800;28;20053;-37
2023/03/10 04:21:12;;;;;;;9.73;4.70;;;1.30;99.90;;;;;;5000503;28;20460;-37
2023/03/10 04:23:40;;;;;;;9.15;4.60;;;1.30;99.90;;;;;;5021782;28;20088;-37
2023/03/10 04:26:10;;;;;;;9.32;4.95;;;1.30;99.90;;;;;;5007847;28;20153;-37
2023/03/10 04:28:37;;;;;;;10.52;5.13;;;1.30;99.90;;;;;;5000073;28;20503;-37
2023/03/10 04:31:03;;;;;;;10.55;5.07;;;1.30;99.90;;;;;;5009000;28;20049;-37
2023/03/10 04:33:29;;;;;;;8.85;4.65;;;1.30;99.90;;;;;;5004887;28;20054;-38
2023/03/10 04:35:55;;;;;;;10.18;4.88;;;1.30;99.90;;;;;;5007982;28;20052;-38
2023/03/10 04:38:23;;;;;;;11.23;5.28;;;1.30;99.90;;;;;;5013973;28;20041;-37
2023/03/10 04:40:54;;;;;;;9.63;4.72;;;1.30;99.90;;;;;;5007460;28;20058;-37
2023/03/10 04:43:19;;;;;;;11.82;5.63;;;1.30;99.90;;;;;;4999265;28;20057;-37
2023/03/10 04:45:47;;;;;;;10.68;5.13;;;1.30;99.90;;;;;;5007614;28;20049;-37
2023/03/10 04:48:13;;;;;;;12.05;5.25;;;1.30;99.90;;;;;;4999364;28;20054;-38
2023/03/10 04:50:39;;;;;;;9.98;5.03;;;1.30;99.90;;;;;;5004594;28;20061;-37
2023/03/10 04:53:04;;;;;;;10.65;5.07;;;1.30;99.90;;;;;;4999119;28;20214;-38
2023/03/10 04:55:30;;;;;;;10.68;5.00;;;1.30;99.90;;;;;;5007176;28;20057;-37
2023/03/10 04:57:56;;;;;;;10.27;5.00;;;1.30;99.90;;;;;;5006049;28;20068;-38
2023/03/10 05:00:22;;;;;;;9.95;5.03;;;1.30;99.90;;;;;;5016561;28;20056;-38
2023/03/10 05:02:48;;;;;;;10.27;4.78;;;1.30;99.90;;;;;;5002126;28;20104;-37
2023/03/10 05:05:13;;;;;;;9.43;4.05;;;1.30;99.90;;;;;;5012217;28;20046;-38
2023/03/10 05:07:39;;;;;;;9.15;4.85;;;1.30;99.90;;;;;;5005653;28;20066;-37
2023/03/10 05:10:06;;;;;;;9.57;4.38;;;1.30;99.90;;;;;;5001471;28;20140;-37
2023/03/10 05:12:32;;;;;;;9.10;4.30;;;1.30;99.90;;;;;;5004517;28;20089;-37
2023/03/10 05:14:57;;;;;;;9.18;4.10;;;1.30;99.90;;;;;;5004239;28;20050;-37
2023/03/10 05:17:25;;;;;;;9.55;4.25;;;1.30;99.90;;;;;;5010965;28;20068;-37
2023/03/10 05:19:51;;;;;;;8.82;4.45;;;1.30;99.90;;;;;;5005328;28;20120;-37
2023/03/10 05:22:16;;;;;;;8.55;4.03;;;1.30;99.90;;;;;;5003555;28;20049;-37
2023/03/10 05:24:42;;;;;;;6.70;3.47;;;1.30;99.90;;;;;;5004197;28;20068;-37
2023/03/10 05:27:09;;;;;;;8.57;3.92;;;1.40;99.90;;;;;;5007856;28;20124;-37
2023/03/10 05:29:37;;;;;;;7.72;3.40;;;1.30;99.90;;;;;;5004379;28;20057;-37
2023/03/10 05:32:03;;;;;;;6.95;3.58;;;1.30;99.90;;;;;;5000305;28;20815;-38
2023/03/10 05:34:30;;;;;;;7.97;3.40;;;1.30;99.90;;;;;;5009685;28;20120;-37
2023/03/10 05:36:55;;;;;;;7.20;3.25;;;1.30;99.90;;;;;;5001656;28;20059;-38
2023/03/10 05:39:21;;;;;;;7.75;3.10;;;1.30;99.90;;;;;;5009444;28;20061;-37
2023/03/10 05:41:47;;;;;;;5.72;2.78;;;1.30;99.90;;;;;;5003469;28;20054;-36
2023/03/10 05:44:13;;;;;;;7.75;3.60;;;1.30;99.90;;;;;;5005105;28;20058;-37
2023/03/10 05:46:38;;;;;;;8.20;3.70;;;1.30;99.90;;;;;;5006781;28;20161;-36
2023/03/10 05:49:04;;;;;;;5.95;2.75;;;1.30;99.90;;;;;;5005507;28;20057;-36
2023/03/10 05:51:30;;;;;;;6.63;3.25;;;1.30;99.90;;;;;;5003420;28;20438;-37
2023/03/10 05:53:55;;;;;;;6.57;2.90;;;1.30;99.90;;;;;;4996309;28;20040;-37
2023/03/10 05:56:21;;;;;;;7.22;2.65;;;1.30;99.90;;;;;;4999744;28;20089;-37
2023/03/10 05:58:49;;;;;;;8.00;3.58;;;1.30;99.90;;;;;;4996284;28;20050;-37
2023/03/10 06:01:16;;;;;;;7.07;2.88;;;1.40;99.90;;;;;;5001329;28;20042;-38
2023/03/10 06:03:43;;;;;;;6.30;2.80;;;1.40;99.90;;;;;;5003104;28;20081;-37
2023/03/10 06:06:10;;;;;;;6.70;3.08;;;1.40;99.90;;;;;;5003953;28;20062;-42
2023/03/10 06:08:37;;;;;;;6.45;2.83;;;1.30;99.90;;;;;;5003600;28;20141;-42
2023/03/10 06:11:04;;;;;;;6.90;3.15;;;1.30;99.90;;;;;;5009734;28;20045;-46
2023/03/10 06:13:31;;;;;;;6.80;3.08;;;1.40;99.90;;;;;;5008778;28;20045;-44
2023/03/10 06:15:59;;;;;;;7.03;3.28;;;1.40;99.90;;;;;;5005675;28;20151;-46
2023/03/10 06:18:25;;;;;;;4.80;2.22;;;1.30;99.90;;;;;;5004968;28;20132;-43
2023/03/10 06:20:52;;;;;;;8.15;3.33;;;1.40;99.90;;;;;;5009194;28;20041;-37
2023/03/10 06:23:18;;;;;;;6.63;3.10;;;1.40;99.90;;;;;;5004363;28;20049;-37
2023/03/10 06:25:44;;;;;;;7.45;3.22;;;1.30;99.90;;;;;;5006780;28;20050;-37
2023/03/10 06:28:11;;;;;;;6.80;3.00;;;1.40;99.90;;;;;;5008386;28;20061;-37
2023/03/10 06:30:37;;;;;;;6.43;3.15;;;1.40;99.90;;;;;;5005537;28;20557;-37
2023/03/10 06:33:03;;;;;;;6.38;2.88;;;1.40;99.90;;;;;;5003763;28;20069;-37
2023/03/10 06:35:30;;;;;;;7.53;3.50;;;1.40;99.90;;;;;;5006865;28;20060;-36
2023/03/10 06:37:55;;;;;;;5.95;2.72;;;1.40;99.90;;;;;;5008241;28;20488;-37
2023/03/10 06:40:21;;;;;;;7.25;3.30;;;1.40;99.90;;;;;;5010762;28;20156;-39
2023/03/10 06:42:47;;;;;;;7.35;2.78;;;1.40;99.90;;;;;;5006979;28;20128;-37
2023/03/10 06:45:15;;;;;;;6.15;3.10;;;1.40;99.90;;;;;;5009984;28;20134;-37
2023/03/10 06:47:41;;;;;;;6.68;3.03;;;1.50;99.90;;;;;;5001691;28;20046;-37
2023/03/10 06:50:07;;;;;;;6.90;2.97;;;1.40;99.90;;;;;;5022514;28;20073;-36
2023/03/10 06:52:33;;;;;;;7.50;3.85;;;1.50;99.90;;;;;;5003386;28;20500;-35
2023/03/10 06:55:00;;;;;;;6.80;2.95;;;1.50;99.90;;;;;;5004965;28;20064;-35
2023/03/10 06:57:27;;;;;;;7.80;3.50;;;1.50;99.90;;;;;;5006733;28;20128;-36
2023/03/10 06:59:52;;;;;;;7.57;3.15;;;1.50;99.90;;;;;;5009138;28;20092;-36
2023/03/10 07:02:18;;;;;;;8.82;3.92;;;1.50;99.90;;;;;;5004637;28;20069;-36
2023/03/10 07:04:45;;;;;;;7.88;3.22;;;1.50;99.90;;;;;;5004410;28;20050;-36
2023/03/10 07:07:12;;;;;;;7.55;3.63;;;1.50;99.90;;;;;;5006781;28;20041;-36
2023/03/10 07:09:37;;;;;;;7.13;3.50;;;1.50;99.90;;;;;;5004036;28;20495;-36
2023/03/10 07:12:03;;;;;;;7.07;2.90;;;1.50;99.90;;;;;;5006171;28;20060;-36
2023/03/10 07:14:29;;;;;;;8.15;3.72;;;1.50;99.90;;;;;;5008995;28;20132;-36
2023/03/10 07:16:55;;;;;;;7.88;3.58;;;1.50;99.90;;;;;;4999643;28;20061;-36
2023/03/10 07:19:21;;;;;;;7.50;3.30;;;1.50;99.90;;;;;;4995601;28;20192;-36
2023/03/10 07:21:47;;;;;;;7.65;3.30;;;1.50;99.90;;;;;;5001646;28;20069;-36
2023/03/10 07:24:12;;;;;;;8.43;3.42;;;1.50;99.90;;;;;;4996552;28;20042;-36
2023/03/10 07:26:38;;;;;;;10.80;3.80;;;1.50;99.90;;;;;;4999830;28;20061;-36
2023/03/10 07:29:04;;;;;;;8.10;3.78;;;1.50;99.90;;;;;;4996239;28;20056;-36
2023/03/10 07:31:29;;;;;;;6.88;3.35;;;1.60;99.90;;;;;;5004397;28;20073;-36
2023/03/10 07:33:55;;;;;;;8.35;3.08;;;1.60;99.90;;;;;;4998607;28;20049;-36
2023/03/10 07:36:21;;;;;;;8.80;4.38;;;1.60;99.90;;;;;;5000576;28;20054;-37
2023/03/10 07:38:47;;;;;;;7.63;3.17;;;1.60;99.90;;;;;;5002427;28;20124;-38
2023/03/10 07:41:18;;;;;;;10.38;4.63;;;1.70;99.90;;;;;;5000983;28;20045;-35
2023/03/10 07:43:44;;;;;;;8.85;3.75;;;1.70;99.90;;;;;;5002155;28;20065;-36
2023/03/10 07:46:13;;;;;;;7.43;3.67;;;1.70;99.90;;;;;;5003013;28;20054;-36
2023/03/10 07:48:39;;;;;;;8.48;3.75;;;1.70;99.90;;;;;;5009031;28;20064;-35
2023/03/10 07:51:05;;;;;;;8.73;4.15;;;1.70;99.90;;;;;;4997671;28;20049;-36
2023/03/10 07:53:32;;;;;;;9.30;4.43;;;1.70;99.90;;;;;;5000161;28;20141;-36
2023/03/10 07:55:57;;;;;;;9.80;4.80;;;1.70;99.90;;;;;;5003268;28;20047;-36
2023/03/10 07:58:23;;;;;;;9.13;4.07;;;1.70;99.90;;;;;;5004848;28;20065;-36
2023/03/10 08:00:57;;;;;;;11.50;5.00;;;1.70;99.90;;;;;;5004117;28;20135;-36
2023/03/10 08:03:27;;;;;;;11.30;5.07;;;1.70;99.90;;;;;;4999703;28;20050;-36
2023/03/10 08:05:54;;;;;;;9.82;5.00;;;1.70;99.90;;;;;;5002456;28;20412;-35
2023/03/10 08:08:19;;;;;;;11.07;5.25;;;1.70;99.90;;;;;;4996065;28;20077;-35
2023/03/10 08:10:46;;;;;;;11.23;5.20;;;1.70;99.90;;;;;;5004451;28;20128;-36
2023/03/10 08:13:12;;;;;;;12.20;5.82;;;1.70;99.90;;;;;;5005189;28;20525;-36
2023/03/10 08:15:38;;;;;;;10.93;5.07;;;1.80;99.90;;;;;;5000177;28;20050;-36
2023/03/10 08:18:06;;;;;;;11.68;5.40;;;1.80;99.90;;;;;;5004459;28;20044;-36
2023/03/10 08:20:34;;;;;;;10.77;5.38;;;1.80;99.90;;;;;;5003264;28;20491;-36
2023/03/10 08:23:00;;;;;;;13.27;6.57;;;1.80;99.90;;;;;;5001002;28;20049;-36
2023/03/10 08:25:26;;;;;;;12.25;6.15;;;1.80;99.90;;;;;;4999786;28;20380;-36
2023/03/10 08:27:51;;;;;;;12.15;6.18;;;1.90;99.90;;;;;;5001163;28;20046;-36
2023/03/10 08:30:17;;;;;;;13.18;6.68;;;1.90;99.90;;;;;;4992884;28;20050;-36
2023/03/10 08:32:43;;;;;;;13.27;6.75;;;1.90;99.90;;;;;;5001722;28;20049;-36
2023/03/10 08:35:09;;;;;;;14.73;6.90;;;1.90;99.90;;;;;;5000174;28;20056;-37
2023/03/10 08:37:35;;;;;;;12.23;6.65;;;2.00;99.90;;;;;;5002473;28;20058;-37
2023/03/10 08:40:00;;;;;;;15.23;6.55;;;2.00;99.90;;;;;;5016339;28;20176;-35
2023/03/10 08:42:26;;;;;;;13.23;7.03;;;2.00;99.90;;;;;;4996201;28;20058;-35
2023/03/10 08:44:55;;;;;;;12.10;5.57;;;2.00;99.90;;;;;;5013667;28;20077;-36
2023/03/10 08:47:22;;;;;;;13.18;6.20;;;2.00;99.90;;;;;;5003859;28;20189;-35
2023/03/10 08:49:48;;;;;;;11.75;5.68;;;2.00;99.90;;;;;;5002062;28;20050;-36
2023/03/10 08:52:14;;;;;;;14.88;6.80;;;2.00;99.90;;;;;;5006342;28;20414;-36
2023/03/10 08:54:40;;;;;;;14.40;6.88;;;2.00;99.90;;;;;;5003394;28;20108;-36
2023/03/10 08:57:05;;;;;;;12.35;6.15;;;2.00;99.90;;;;;;5000242;28;20054;-36
2023/03/10 08:59:31;;;;;;;14.02;6.88;;;2.00;99.90;;;;;;5001141;28;20100;-36
2023/03/10 09:01:57;;;;;;;12.73;6.80;;;2.00;99.90;;;;;;4993081;28;20603;-36
2023/03/10 09:04:23;;;;;;;13.27;6.25;;;2.10;99.90;;;;;;4991519;28;20045;-36
2023/03/10 09:06:49;;;;;;;14.52;7.15;;;2.10;99.90;;;;;;5007640;28;20140;-36
2023/03/10 09:09:15;;;;;;;13.38;6.13;;;2.10;99.90;;;;;;5003029;28;20536;-36
2023/03/10 09:11:40;;;;;;;14.00;6.30;;;2.10;99.90;;;;;;5001591;28;20050;-35
2023/03/10 09:14:09;;;;;;;13.75;6.38;;;2.10;99.90;;;;;;5005534;28;20054;-36
2023/03/10 09:16:35;;;;;;;13.55;6.47;;;2.20;99.90;;;;;;4995607;28;20061;-36
2023/03/10 09:19:01;;;;;;;12.23;6.32;;;2.20;99.90;;;;;;5008007;28;20058;-36
2023/03/10 09:21:29;;;;;;;13.95;7.20;;;2.20;99.90;;;;;;5002186;28;20200;-35
2023/03/10 09:23:55;;;;;;;12.23;5.82;;;2.20;99.90;;;;;;4997733;28;20136;-36
2023/03/10 09:26:21;;;;;;;12.75;6.15;;;2.30;99.90;;;;;;5003555;28;20080;-36
2023/03/10 09:28:49;;;;;;;13.85;6.72;;;2.30;99.90;;;;;;5005246;28;20132;-35
2023/03/10 09:31:21;;;;;;;13.38;6.20;;;2.30;99.90;;;;;;5005733;28;20058;-36
2023/03/10 09:33:48;;;;;;;13.57;6.05;;;2.30;99.90;;;;;;5001224;28;20491;-35
2023/03/10 09:36:14;;;;;;;13.07;6.47;;;2.30;99.90;;;;;;5004485;28;20073;-36
2023/03/10 09:38:40;;;;;;;13.50;6.38;;;2.30;99.90;;;;;;5005616;28;20085;-42
2023/03/10 09:41:15;;;;;;;12.13;6.00;;;2.30;99.90;;;;;;4998462;28;20470;-42
2023/03/10 09:44:07;;;;;;;12.27;5.57;;;2.30;99.90;;;;;;4993729;28;20140;-41
2023/03/10 09:46:49;;;;;;;11.88;5.85;;;2.30;99.90;;;;;;4973673;28;20060;-42
2023/03/10 09:49:47;;;;;;;10.75;5.22;;;2.30;99.90;;;;;;4997752;28;20034;-42
2023/03/10 09:52:41;;;;;;;11.18;5.65;;;2.20;99.90;;;;;;4996534;28;20062;-41
2023/03/10 09:55:17;;;;;;;11.93;5.97;;;2.20;99.90;;;;;;4995941;28;20054;-49
2023/03/10 09:57:46;;;;;;;12.27;6.20;;;2.20;99.90;;;;;;5000274;28;20060;-41
2023/03/10 10:00:27;;;;;;;12.48;6.18;;;2.20;99.90;;;;;;4999961;28;20049;-44
2023/03/10 10:03:30;;;;;;;12.80;6.18;;;2.20;99.90;;;;;;4998790;28;20080;-35
2023/03/10 10:05:56;;;;;;;15.10;5.72;;;2.20;99.90;;;;;;5007843;28;20053;-36
2023/03/10 10:08:21;;;;;;;12.75;6.32;;;2.30;99.90;;;;;;5005402;28;20119;-36
2023/03/10 10:10:52;;;;;;;14.38;6.30;;;2.20;99.90;;;;;;5005522;28;20049;-38
2023/03/10 10:13:18;;;;;;;12.15;6.22;;;2.20;99.90;;;;;;4999573;28;20551;-36
2023/03/10 10:15:55;;;;;;;13.50;6.38;;;2.20;99.90;;;;;;4998399;28;20140;-37
2023/03/10 10:18:32;;;;;;;12.73;6.32;;;2.20;99.90;;;;;;4997746;28;20050;-37
2023/03/10 10:21:05;;;;;;;12.48;6.43;;;2.20;99.90;;;;;;5003490;28;20045;-37
2023/03/10 10:23:47;;;;;;;12.68;6.00;;;2.20;99.90;;;;;;5005319;28;20073;-37
2023/03/10 10:26:23;;;;;;;12.25;5.65;;;2.20;99.90;;;;;;4998353;28;20061;-37
2023/03/10 10:28:57;;;;;;;12.45;6.18;;;2.10;99.90;;;;;;4993137;28;20200;-37
2023/03/10 10:31:27;;;;;;;13.15;6.30;;;2.10;99.90;;;;;;4996624;28;20054;-38
2023/03/10 10:34:17;;;;;;;12.27;5.85;;;2.10;99.90;;;;;;4998532;28;20084;-36
2023/03/10 10:36:50;;;;;;;12.35;6.80;;;2.10;99.90;;;;;;4996064;28;20141;-38
2023/03/10 10:39:40;;;;;;;12.95;6.57;;;2.10;99.90;;;;;;5000189;28;20137;-36
2023/03/10 10:42:12;;;;;;;14.02;6.60;;;2.20;99.90;;;;;;5010986;28;20052;-37
2023/03/10 10:44:42;;;;;;;14.13;6.40;;;2.20;99.90;;;;;;5010735;28;20045;-37
2023/03/10 10:47:23;;;;;;;11.15;5.05;;;2.20;99.90;;;;;;4994463;28;20303;-37
2023/03/10 10:49:48;;;;;;;12.13;5.78;;;2.20;99.90;;;;;;4994177;28;20092;-42
2023/03/10 10:52:23;;;;;;;11.50;6.20;;;2.20;99.90;;;;;;4996165;28;20471;-38
2023/03/10 10:54:57;;;;;;;14.25;6.38;;;2.20;99.90;;;;;;4998320;28;20196;-37
2023/03/10 10:57:34;;;;;;;11.45;6.55;;;2.20;99.90;;;;;;5001089;28;20501;-37
2023/03/10 11:00:17;;;;;;;11.02;5.63;;;2.20;99.90;;;;;;5002771;28;20108;-46
2023/03/10 11:02:43;;;;;;;12.20;5.35;;;2.20;99.90;;;;;;4999744;28;20049;-41
2023/03/10 11:05:12;;;;;;;11.60;5.78;;;2.20;99.90;;;;;;4999345;28;20053;-42
2023/03/10 11:07:38;;;;;;;11.27;5.72;;;2.20;99.90;;;;;;5000764;28;20046;-41
2023/03/10 11:10:15;;;;;;;12.05;5.85;;;2.20;99.90;;;;;;5000189;28;20515;-42
2023/03/10 11:13:00;;;;;;;11.68;6.00;;;2.20;99.90;;;;;;5002025;28;20140;-42
2023/03/10 11:15:29;;;;;;;11.07;5.22;;;2.20;99.90;;;;;;5014434;28;20054;-42
2023/03/10 11:18:14;;;;;;;11.20;5.60;;;2.30;99.90;;;;;;5002550;28;20100;-43
2023/03/10 11:20:56;;;;;;;13.55;6.10;;;2.30;99.90;;;;;;5000143;28;20567;-41
2023/03/10 11:23:51;;;;;;;13.40;6.32;;;2.40;99.90;;;;;;5001194;28;20582;-50
2023/03/10 11:26:43;;;;;;;11.27;5.65;;;2.50;99.90;;;;;;5003858;28;20083;-44
2023/03/10 11:29:37;;;;;;;10.60;5.60;;;2.60;99.90;;;;;;5001867;28;20065;-41
2023/03/10 11:32:40;;;;;;;12.23;5.78;;;2.60;99.90;;;;;;5001844;28;20053;-44
2023/03/10 11:35:14;;;;;;;;;;;2.60;99.90;;;;;;5000088;28;20054;-41
2023/03/10 11:37:53;;;;;;;11.05;5.38;;;2.50;99.90;;;;;;5001488;28;19929;-41
2023/03/10 11:40:26;;;;;;;11.55;5.72;;;2.60;99.90;;;;;;4995010;28;20107;-42
2023/03/10 11:43:07;;;;;;;12.18;5.90;;;2.60;99.90;;;;;;5003480;28;20108;-44
2023/03/10 11:45:44;;;;;;;10.70;5.72;;;2.60;99.90;;;;;;5000908;28;20058;-41
2023/03/10 11:48:25;;;;;;;11.15;5.53;;;2.60;99.90;;;;;;5014380;28;20072;-41
2023/03/10 11:50:58;;;;;;;9.63;4.97;;;2.60;99.90;;;;;;5007688;28;20056;-42
2023/03/10 11:53:23;;;;;;;;;;;2.50;99.90;;;;;;5002293;28;20049;-42
2023/03/10 11:55:50;;;;;;;11.20;5.22;;;2.50;99.90;;;;;;5001925;28;20421;-42
2023/03/10 11:58:24;;;;;;;12.30;6.20;;;2.50;99.90;;;;;;5001876;28;20140;-47
2023/03/10 12:00:52;;;;;;;11.18;5.38;;;2.50;99.90;;;;;;5002398;28;20498;-45
2023/03/10 12:03:47;;;;;;;10.88;5.50;;;2.50;99.90;;;;;;5005769;28;20089;-51
2023/03/10 12:06:25;;;;;;;11.60;5.70;;;2.60;99.90;;;;;;5002838;28;20060;-47
2023/03/10 12:08:54;;;;;;;12.00;5.35;;;2.50;99.90;;;;;;5002138;28;20054;-47
2023/03/10 12:11:25;;;;;;;10.07;5.45;;;2.50;99.90;;;;;;4996444;28;20054;-46
2023/03/10 12:13:57;;;;;;;10.57;5.22;;;2.50;99.90;;;;;;4997008;28;20046;-47
2023/03/10 12:16:26;;;;;;;10.35;5.32;;;2.50;99.90;;;;;;4997223;28;20088;-48
2023/03/10 12:18:52;;;;;;;11.48;5.55;;;2.50;99.90;;;;;;5015618;28;20572;-45
2023/03/10 12:21:27;;;;;;;9.35;4.93;;;2.50;99.90;;;;;;4996428;28;20443;-46
2023/03/10 12:23:56;;;;;;;11.13;5.25;;;2.50;99.90;;;;;;5001131;28;20093;-48
2023/03/10 12:26:37;;;;;;;9.50;5.10;;;2.60;99.90;;;;;;5012172;28;20053;-45
2023/03/10 12:29:22;;;;;;;10.35;5.65;;;2.60;99.90;;;;;;4998551;28;20061;-43
2023/03/10 12:31:53;;;;;;;9.55;4.82;;;2.60;99.90;;;;;;4995039;28;20753;-44
2023/03/10 12:34:31;;;;;;;11.00;5.20;;;2.60;99.90;;;;;;4996121;28;20046;-46
2023/03/10 12:37:10;;;;;;;11.23;5.68;;;2.60;99.90;;;;;;4998997;28;20483;-48
2023/03/10 12:39:38;;;;;;;9.38;4.68;;;2.60;99.90;;;;;;5004970;28;20046;-49
2023/03/10 12:42:24;;;;;;;10.27;5.05;;;2.60;99.90;;;;;;4992411;28;20054;-47
2023/03/10 12:44:52;;;;;;;10.15;5.20;;;2.60;99.90;;;;;;4996120;28;20084;-44
2023/03/10 12:47:24;;;;;;;10.60;4.82;;;2.60;99.90;;;;;;4994405;28;20132;-48
2023/03/10 12:49:59;;;;;;;11.77;5.77;;;2.60;99.90;;;;;;5001676;28;20060;-46
2023/03/10 12:52:39;;;;;;;11.48;5.43;;;2.60;99.90;;;;;;5005856;28;20673;-48
2023/03/10 12:55:26;;;;;;;10.93;5.10;;;2.60;99.90;;;;;;5004061;28;20060;-46
2023/03/10 12:58:10;;;;;;;12.30;6.10;;;2.50;99.90;;;;;;5004827;28;20053;-48
2023/03/10 13:00:57;;;;;;;10.52;5.15;;;2.50;99.90;;;;;;4997701;28;20049;-47
2023/03/10 13:03:31;;;;;;;11.43;5.07;;;2.50;99.90;;;;;;4987061;28;20084;-48
2023/03/10 13:05:57;;;;;;;10.23;5.07;;;2.40;99.90;;;;;;5002560;28;20758;-48